createdAt,value
2017-11-30T00:01:58.456Z,20.43
2017-11-30T00:04:24.667Z,20.80
2017-11-30T00:06:50.872Z,21.33
2017-11-30T00:09:17.084Z,19.50
2017-11-30T00:11:44.056Z,21.70
2017-11-30T00:14:10.343Z,19.77
2017-11-30T00:16:37.335Z,23.33
2017-11-30T00:19:03.588Z,23.57
2017-11-30T00:21:29.812Z,21.13
2017-11-30T00:23:56.104Z,23.47
2017-11-30T00:26:22.438Z,23.60
2017-11-30T00:28:48.776Z,21.77
2017-11-30T00:31:15.050Z,20.50
2017-11-30T00:33:41.286Z,21.67
2017-11-30T00:36:08.284Z,21.00
2017-11-30T00:38:34.536Z,23.23
2017-11-30T00:41:00.801Z,22.00
2017-11-30T00:43:30.742Z,21.70
2017-11-30T00:45:57.064Z,22.47
2017-11-30T00:48:23.364Z,23.50
2017-11-30T00:50:49.615Z,21.00
2017-11-30T00:53:16.648Z,23.70
2017-11-30T00:55:43.672Z,24.03
2017-11-30T00:58:09.953Z,42.07
2017-11-30T01:00:36.204Z,21.87
2017-11-30T01:03:02.490Z,25.13
2017-11-30T01:05:29.520Z,23.10
2017-11-30T01:07:56.502Z,25.47
2017-11-30T01:10:22.722Z,21.53
2017-11-30T01:12:49.652Z,22.80
2017-11-30T01:15:16.627Z,24.40
2017-11-30T01:17:42.796Z,27.00
2017-11-30T01:20:09.048Z,27.83
2017-11-30T01:22:35.300Z,25.00
2017-11-30T01:25:01.533Z,26.50
2017-11-30T01:27:27.791Z,25.53
2017-11-30T01:29:53.965Z,23.93
2017-11-30T01:32:20.191Z,26.10
2017-11-30T01:34:46.433Z,27.13
2017-11-30T01:37:13.447Z,26.37
2017-11-30T01:39:39.676Z,24.20
2017-11-30T01:42:05.872Z,26.70
2017-11-30T01:44:32.073Z,30.40
2017-11-30T01:46:58.266Z,28.07
2017-11-30T01:49:24.483Z,26.60
2017-11-30T01:51:50.677Z,25.80
2017-11-30T01:54:16.999Z,25.33
2017-11-30T01:56:43.260Z,26.13
2017-11-30T01:59:09.499Z,24.97
2017-11-30T02:01:35.739Z,26.80
2017-11-30T02:04:02.016Z,25.13
2017-11-30T02:06:28.274Z,25.33
2017-11-30T02:08:54.466Z,25.70
2017-11-30T02:11:20.695Z,23.90
2017-11-30T02:13:46.926Z,24.07
2017-11-30T02:16:13.115Z,26.33
2017-11-30T02:18:40.097Z,22.40
2017-11-30T02:21:06.364Z,34.00
2017-11-30T02:23:32.610Z,24.83
2017-11-30T02:25:58.881Z,23.27
2017-11-30T02:28:25.167Z,24.77
2017-11-30T02:30:51.419Z,22.30
2017-11-30T02:33:18.498Z,24.03
2017-11-30T02:35:44.798Z,28.20
2017-11-30T02:38:11.825Z,24.73
2017-11-30T02:40:38.092Z,22.03
2017-11-30T02:43:04.337Z,21.60
2017-11-30T02:45:30.624Z,29.87
2017-11-30T02:47:57.717Z,23.70
2017-11-30T02:50:24.037Z,23.83
2017-11-30T02:52:50.330Z,23.90
2017-11-30T02:55:17.337Z,23.43
2017-11-30T02:57:43.623Z,25.77
2017-11-30T03:00:10.618Z,24.30
2017-11-30T03:02:36.944Z,23.20
2017-11-30T03:05:03.234Z,24.20
2017-11-30T03:07:29.513Z,21.33
2017-11-30T03:09:55.805Z,26.33
2017-11-30T03:12:22.095Z,30.20
2017-11-30T03:14:49.107Z,23.57
2017-11-30T03:17:15.362Z,23.27
2017-11-30T03:19:42.732Z,21.83
2017-11-30T03:22:09.766Z,26.30
2017-11-30T03:24:36.065Z,23.87
2017-11-30T03:27:02.269Z,25.10
2017-11-30T03:29:28.568Z,22.47
2017-11-30T03:31:54.839Z,24.23
2017-11-30T03:34:21.136Z,28.50
2017-11-30T03:36:50.252Z,28.10
2017-11-30T03:39:16.474Z,28.20
2017-11-30T03:41:42.753Z,24.90
2017-11-30T03:44:09.077Z,28.73
2017-11-30T03:46:35.323Z,27.17
2017-11-30T03:49:01.591Z,24.53
2017-11-30T03:51:27.833Z,27.00
2017-11-30T03:53:54.059Z,28.70
2017-11-30T03:56:20.266Z,29.33
2017-11-30T03:58:47.334Z,31.93
2017-11-30T04:01:13.637Z,27.33
2017-11-30T04:03:40.670Z,27.10
2017-11-30T04:06:07.610Z,24.60
2017-11-30T04:08:33.897Z,30.80
2017-11-30T04:11:00.168Z,29.93
2017-11-30T04:13:26.330Z,29.80
2017-11-30T04:15:53.297Z,28.57
2017-11-30T04:18:19.608Z,26.17
2017-11-30T04:20:45.888Z,25.93
2017-11-30T04:23:12.124Z,29.53
2017-11-30T04:25:38.372Z,29.00
2017-11-30T04:28:04.625Z,27.20
2017-11-30T04:30:31.584Z,32.37
2017-11-30T04:32:57.840Z,26.83
2017-11-30T04:35:24.096Z,26.53
2017-11-30T04:37:50.370Z,24.87
2017-11-30T04:40:16.586Z,24.70
2017-11-30T04:42:42.822Z,26.70
2017-11-30T04:45:09.088Z,21.93
2017-11-30T04:47:35.319Z,25.20
2017-11-30T04:50:01.603Z,27.50
2017-11-30T04:52:27.817Z,24.23
2017-11-30T04:54:54.854Z,28.73
2017-11-30T04:57:21.900Z,28.30
2017-11-30T04:59:48.171Z,23.77
2017-11-30T05:02:14.412Z,27.60
2017-11-30T05:04:40.707Z,36.03
2017-11-30T05:07:06.965Z,29.83
2017-11-30T05:09:33.208Z,30.23
2017-11-30T05:11:59.459Z,28.90
2017-11-30T05:14:25.733Z,28.10
2017-11-30T05:16:52.687Z,26.80
2017-11-30T05:19:18.942Z,29.07
2017-11-30T05:21:45.216Z,27.23
2017-11-30T05:24:12.204Z,28.10
2017-11-30T05:26:38.531Z,25.30
2017-11-30T05:29:04.803Z,27.60
2017-11-30T05:31:31.794Z,27.80
2017-11-30T05:33:57.986Z,28.13
2017-11-30T05:36:24.953Z,31.80
2017-11-30T05:38:51.924Z,30.63
2017-11-30T05:41:18.123Z,25.20
2017-11-30T05:43:45.067Z,26.80
2017-11-30T05:46:12.040Z,30.40
2017-11-30T05:48:38.281Z,32.30
2017-11-30T05:51:04.510Z,33.03
2017-11-30T05:53:30.688Z,32.47
2017-11-30T05:55:56.909Z,33.20
2017-11-30T05:58:23.928Z,31.53
2017-11-30T06:00:50.147Z,34.97
2017-11-30T06:03:16.464Z,30.93
2017-11-30T06:05:42.708Z,35.23
2017-11-30T06:08:08.952Z,31.00
2017-11-30T06:10:35.187Z,35.07
2017-11-30T06:13:01.449Z,30.57
2017-11-30T06:15:28.488Z,29.10
2017-11-30T06:17:55.482Z,29.60
2017-11-30T06:20:21.746Z,35.50
2017-11-30T06:22:48.673Z,33.40
2017-11-30T06:25:14.929Z,33.03
2017-11-30T06:27:41.980Z,33.40
2017-11-30T06:30:08.959Z,33.23
2017-11-30T06:32:35.221Z,34.37
2017-11-30T06:35:01.501Z,37.23
2017-11-30T06:37:27.753Z,36.23
2017-11-30T06:39:53.972Z,38.33
2017-11-30T06:42:20.280Z,35.93
2017-11-30T06:44:47.242Z,33.43
2017-11-30T06:47:13.449Z,31.13
2017-11-30T06:49:40.449Z,31.77
2017-11-30T06:52:06.710Z,35.13
2017-11-30T06:54:33.724Z,31.07
2017-11-30T06:57:00.008Z,30.07
2017-11-30T06:59:26.256Z,31.30
2017-11-30T07:01:52.553Z,35.57
2017-11-30T07:04:19.559Z,34.70
2017-11-30T07:06:45.773Z,36.47
2017-11-30T07:09:12.008Z,30.40
2017-11-30T07:11:38.543Z,31.30
2017-11-30T07:14:04.757Z,31.10
2017-11-30T07:16:31.021Z,31.70
2017-11-30T07:18:57.323Z,37.57
2017-11-30T07:21:23.563Z,31.87
2017-11-30T07:23:49.793Z,31.70
2017-11-30T07:26:16.006Z,32.17
2017-11-30T07:28:42.303Z,30.33
2017-11-30T07:31:09.360Z,32.20
2017-11-30T07:33:35.612Z,32.73
2017-11-30T07:36:01.864Z,28.30
2017-11-30T07:38:28.101Z,30.33
2017-11-30T07:40:55.120Z,31.90
2017-11-30T07:43:21.371Z,26.87
2017-11-30T07:45:47.857Z,34.23
2017-11-30T07:48:14.813Z,28.50
2017-11-30T07:50:41.020Z,29.93
2017-11-30T07:53:08.088Z,29.20
2017-11-30T07:55:35.266Z,32.53
2017-11-30T07:58:01.521Z,30.70
2017-11-30T08:00:27.788Z,27.30
2017-11-30T08:02:54.118Z,30.37
2017-11-30T08:05:20.408Z,30.87
2017-11-30T08:07:46.656Z,29.20
2017-11-30T08:10:12.907Z,29.93
2017-11-30T08:12:39.140Z,34.03
2017-11-30T08:15:06.169Z,28.03
2017-11-30T08:17:33.241Z,26.63
2017-11-30T08:19:59.553Z,33.50
2017-11-30T08:22:26.524Z,31.83
2017-11-30T08:24:52.831Z,33.90
2017-11-30T08:27:19.905Z,29.37
2017-11-30T08:29:46.199Z,29.27
2017-11-30T08:32:13.174Z,29.97
2017-11-30T08:34:39.407Z,33.30
2017-11-30T08:37:05.683Z,33.37
2017-11-30T08:39:31.942Z,32.47
2017-11-30T08:41:59.004Z,32.33
2017-11-30T08:44:25.668Z,33.60
2017-11-30T08:46:51.938Z,36.07
2017-11-30T08:49:18.183Z,37.43
2017-11-30T08:51:45.236Z,36.27
2017-11-30T08:54:12.313Z,32.43
2017-11-30T08:56:38.621Z,26.60
2017-11-30T08:59:04.907Z,29.73
2017-11-30T09:01:31.150Z,39.33
2017-11-30T09:03:58.169Z,31.03
2017-11-30T09:06:24.474Z,31.77
2017-11-30T09:08:50.751Z,30.40
2017-11-30T09:11:17.684Z,32.60
2017-11-30T09:13:44.003Z,28.63
2017-11-30T09:16:10.274Z,29.43
2017-11-30T09:18:37.338Z,31.60
2017-11-30T09:21:03.663Z,28.60
2017-11-30T09:23:29.922Z,27.00
2017-11-30T09:25:56.158Z,31.67
2017-11-30T09:28:22.493Z,32.23
2017-11-30T09:30:48.762Z,28.27
2017-11-30T09:33:15.720Z,30.47
2017-11-30T09:35:42.688Z,26.53
2017-11-30T09:38:08.950Z,32.17
2017-11-30T09:40:35.258Z,30.73
2017-11-30T09:43:01.531Z,33.43
2017-11-30T09:45:28.551Z,38.30
2017-11-30T09:47:54.781Z,27.47
2017-11-30T09:50:21.087Z,30.03
2017-11-30T09:52:47.403Z,29.80
2017-11-30T09:55:14.352Z,28.67
2017-11-30T09:57:40.683Z,31.80
2017-11-30T10:00:06.948Z,28.27
2017-11-30T10:02:33.159Z,31.50
2017-11-30T10:04:59.420Z,33.90
2017-11-30T10:07:25.693Z,45.13
2017-11-30T10:09:51.981Z,42.80
2017-11-30T10:12:18.192Z,34.33
2017-11-30T10:14:44.453Z,40.87
2017-11-30T10:17:10.702Z,38.67
2017-11-30T10:19:37.657Z,31.50
2017-11-30T10:22:04.746Z,33.87
2017-11-30T10:24:30.976Z,31.10
2017-11-30T10:26:57.146Z,37.23
2017-11-30T10:29:24.168Z,38.80
2017-11-30T10:31:50.415Z,43.03
2017-11-30T10:34:17.447Z,46.57
2017-11-30T10:36:43.747Z,33.77
2017-11-30T10:39:10.016Z,32.87
2017-11-30T10:41:37.052Z,32.60
2017-11-30T10:44:03.288Z,28.60
2017-11-30T10:46:29.686Z,28.70
2017-11-30T10:48:55.921Z,28.60
2017-11-30T10:51:22.185Z,27.90
2017-11-30T10:53:49.145Z,27.80
2017-11-30T10:56:16.094Z,29.73
2017-11-30T10:58:42.406Z,31.83
2017-11-30T11:01:09.464Z,23.37
2017-11-30T11:03:36.478Z,28.87
2017-11-30T11:06:03.058Z,25.27
2017-11-30T11:08:29.341Z,23.83
2017-11-30T11:10:55.564Z,26.77
2017-11-30T11:13:21.883Z,22.67
2017-11-30T11:15:54.672Z,29.00
2017-11-30T11:18:20.915Z,17.27
2017-11-30T11:20:47.210Z,14.80
2017-11-30T11:23:13.533Z,15.07
2017-11-30T11:25:39.767Z,14.87
2017-11-30T11:28:06.063Z,14.13
2017-11-30T11:30:32.996Z,14.00
2017-11-30T11:32:59.191Z,13.43
2017-11-30T11:35:25.481Z,12.17
2017-11-30T11:37:51.733Z,18.80
2017-11-30T11:40:18.048Z,13.30
2017-11-30T11:42:44.358Z,16.80
2017-11-30T11:45:11.322Z,19.77
2017-11-30T11:47:37.572Z,15.27
2017-11-30T11:50:03.822Z,15.67
2017-11-30T11:52:30.067Z,13.80
2017-11-30T11:54:56.325Z,16.70
2017-11-30T11:57:22.550Z,14.27
2017-11-30T11:59:49.519Z,14.73
2017-11-30T12:02:15.746Z,13.67
2017-11-30T12:04:41.986Z,11.93
2017-11-30T12:07:08.260Z,13.60
2017-11-30T12:09:34.543Z,14.57
2017-11-30T12:12:00.836Z,14.40
2017-11-30T12:14:27.778Z,10.83
2017-11-30T12:16:54.732Z,11.40
2017-11-30T12:19:21.752Z,9.60
2017-11-30T12:21:48.774Z,9.80
2017-11-30T12:24:15.068Z,8.83
2017-11-30T12:26:41.291Z,9.90
2017-11-30T12:29:08.228Z,10.13
2017-11-30T12:31:35.174Z,11.03
2017-11-30T12:34:02.175Z,8.37
2017-11-30T12:36:28.468Z,9.83
2017-11-30T12:38:54.701Z,10.10
2017-11-30T12:41:20.929Z,9.70
2017-11-30T12:43:47.229Z,14.77
2017-11-30T12:46:14.202Z,10.27
2017-11-30T12:48:40.417Z,10.10
2017-11-30T12:51:06.648Z,18.00
2017-11-30T12:53:33.652Z,10.67
2017-11-30T12:55:59.933Z,14.87
2017-11-30T12:58:26.199Z,11.07
2017-11-30T13:00:52.495Z,11.90
2017-11-30T13:03:18.815Z,12.30
2017-11-30T13:05:45.370Z,11.60
2017-11-30T13:08:11.567Z,13.70
2017-11-30T13:10:38.563Z,13.93
2017-11-30T13:13:04.872Z,12.80
2017-11-30T13:15:31.162Z,14.63
2017-11-30T13:17:58.153Z,12.93
2017-11-30T13:20:24.501Z,14.57
2017-11-30T13:22:50.740Z,15.60
2017-11-30T13:25:17.045Z,15.90
2017-11-30T13:27:43.292Z,14.40
2017-11-30T13:30:09.597Z,14.60
2017-11-30T13:32:35.850Z,17.47
2017-11-30T13:35:02.105Z,17.30
2017-11-30T13:37:28.350Z,17.07
2017-11-30T13:39:55.402Z,17.97
2017-11-30T13:42:22.402Z,16.23
2017-11-30T13:44:48.595Z,18.67
2017-11-30T13:47:14.801Z,19.07
2017-11-30T13:49:41.002Z,20.23
2017-11-30T13:52:07.257Z,20.00
2017-11-30T13:54:34.240Z,20.23
2017-11-30T13:57:00.490Z,19.50
2017-11-30T13:59:26.706Z,16.40
2017-11-30T14:01:52.927Z,28.80
2017-11-30T14:04:19.144Z,32.13
2017-11-30T14:06:45.330Z,26.37
2017-11-30T14:09:11.548Z,21.33
2017-11-30T14:11:37.758Z,19.73
2017-11-30T14:14:04.030Z,21.53
2017-11-30T14:16:30.969Z,19.17
2017-11-30T14:18:57.202Z,17.67
2017-11-30T14:21:24.225Z,23.40
2017-11-30T14:23:50.487Z,20.60
2017-11-30T14:26:17.475Z,19.80
2017-11-30T14:28:43.710Z,16.07
2017-11-30T14:31:09.988Z,20.80
2017-11-30T14:33:37.023Z,28.10
2017-11-30T14:36:03.272Z,17.60
2017-11-30T14:38:29.491Z,18.93
2017-11-30T14:40:55.763Z,19.90
2017-11-30T14:43:22.187Z,16.43
2017-11-30T14:45:48.398Z,22.20
2017-11-30T14:48:14.646Z,20.97
2017-11-30T14:50:40.933Z,23.10
2017-11-30T14:53:07.915Z,21.03
2017-11-30T14:55:34.166Z,21.80
2017-11-30T14:58:00.351Z,20.77
2017-11-30T15:00:27.358Z,20.73
2017-11-30T15:02:53.604Z,23.80
2017-11-30T15:05:19.866Z,27.10
2017-11-30T15:07:46.159Z,34.93
2017-11-30T15:10:12.426Z,55.23
2017-11-30T15:12:38.707Z,65.87
2017-11-30T15:15:04.930Z,58.63
2017-11-30T15:17:31.128Z,39.17
2017-11-30T15:19:57.306Z,32.63
2017-11-30T15:22:23.511Z,41.83
2017-11-30T15:24:49.743Z,30.10
2017-11-30T15:27:16.010Z,23.80
2017-11-30T15:29:42.957Z,54.20
2017-11-30T15:32:09.948Z,28.90
2017-11-30T15:34:36.123Z,64.23
2017-11-30T15:37:03.082Z,36.40
2017-11-30T15:39:29.631Z,29.70
2017-11-30T15:41:55.825Z,25.10
2017-11-30T15:44:22.755Z,24.27
2017-11-30T15:46:49.020Z,26.57
2017-11-30T15:49:15.246Z,21.37
2017-11-30T15:51:41.527Z,21.00
2017-11-30T15:54:07.808Z,21.60
2017-11-30T15:56:34.076Z,23.20
2017-11-30T15:59:00.311Z,25.20
2017-11-30T16:01:26.598Z,25.13
2017-11-30T16:03:52.882Z,27.70
2017-11-30T16:06:19.163Z,42.77
2017-11-30T16:08:45.378Z,40.23
2017-11-30T16:11:12.446Z,28.07
2017-11-30T16:13:38.619Z,25.70
2017-11-30T16:16:04.878Z,26.50
2017-11-30T16:18:31.856Z,27.00
2017-11-30T16:20:58.117Z,24.73
2017-11-30T16:23:24.353Z,25.83
2017-11-30T16:25:50.666Z,26.33
2017-11-30T16:28:16.921Z,22.07
2017-11-30T16:30:43.892Z,25.03
2017-11-30T16:33:10.778Z,35.37
2017-11-30T16:35:37.039Z,28.10
2017-11-30T16:38:03.942Z,28.07
2017-11-30T16:40:30.167Z,27.80
2017-11-30T16:42:56.403Z,26.80
2017-11-30T16:45:22.645Z,24.63
2017-11-30T16:47:48.846Z,27.87
2017-11-30T16:50:15.095Z,27.13
2017-11-30T16:52:41.375Z,26.23
2017-11-30T16:55:07.627Z,40.43
2017-11-30T16:57:33.966Z,42.87
2017-11-30T17:00:00.230Z,43.20
2017-11-30T17:02:26.862Z,39.50
2017-11-30T17:04:53.131Z,42.30
2017-11-30T17:07:19.427Z,40.53
2017-11-30T17:09:45.727Z,48.53
2017-11-30T17:12:11.962Z,47.30
2017-11-30T17:14:38.246Z,40.73
2017-11-30T17:17:05.232Z,41.33
2017-11-30T17:19:31.451Z,39.57
2017-11-30T17:21:57.735Z,39.23
2017-11-30T17:24:24.761Z,34.33
2017-11-30T17:26:50.974Z,33.80
2017-11-30T17:29:17.201Z,29.97
2017-11-30T17:31:43.395Z,31.40
2017-11-30T17:34:09.668Z,31.10
2017-11-30T17:36:35.931Z,27.43
2017-11-30T17:39:02.979Z,30.30
2017-11-30T17:41:30.054Z,26.80
2017-11-30T17:43:56.338Z,29.77
2017-11-30T17:46:22.631Z,29.80
2017-11-30T17:48:48.948Z,27.20
2017-11-30T17:51:15.182Z,29.53
2017-11-30T17:53:41.434Z,27.10
2017-11-30T17:56:07.677Z,32.97
2017-11-30T17:58:33.903Z,29.63
2017-11-30T18:01:00.120Z,32.20
2017-11-30T18:03:26.332Z,31.73
2017-11-30T18:05:52.540Z,31.37
2017-11-30T18:08:18.792Z,31.90
2017-11-30T18:10:46.012Z,26.37
2017-11-30T18:13:12.992Z,25.63
2017-11-30T18:15:39.239Z,27.30
2017-11-30T18:18:06.292Z,35.30
2017-11-30T18:20:32.668Z,29.77
2017-11-30T18:22:58.950Z,32.70
2017-11-30T18:25:25.169Z,34.30
2017-11-30T18:27:51.389Z,35.70
2017-11-30T18:30:17.609Z,33.10
2017-11-30T18:32:43.874Z,33.70
2017-11-30T18:35:10.120Z,29.80
2017-11-30T18:37:37.177Z,30.57
2017-11-30T18:40:04.138Z,36.60
2017-11-30T18:42:30.362Z,33.47
2017-11-30T18:44:57.606Z,40.03
2017-11-30T18:47:24.601Z,43.50
2017-11-30T18:49:50.795Z,37.07
2017-11-30T18:52:17.091Z,36.50
2017-11-30T18:54:44.039Z,38.37
2017-11-30T18:57:11.003Z,33.10
2017-11-30T18:59:37.268Z,33.10
2017-11-30T19:02:03.510Z,40.33
2017-11-30T19:04:29.803Z,36.60
2017-11-30T19:06:56.682Z,38.63
2017-11-30T19:09:22.996Z,32.60
2017-11-30T19:11:49.212Z,36.93
2017-11-30T19:14:15.455Z,29.60
2017-11-30T19:16:41.736Z,31.70
2017-11-30T19:19:08.771Z,30.57
2017-11-30T19:21:35.771Z,30.83
2017-11-30T19:24:02.058Z,29.90
2017-11-30T19:26:29.059Z,31.90
2017-11-30T19:28:55.276Z,34.50
2017-11-30T19:31:21.688Z,36.17
2017-11-30T19:33:47.907Z,34.07
2017-11-30T19:36:14.895Z,30.17
2017-11-30T19:38:41.169Z,28.57
2017-11-30T19:41:08.134Z,32.47
2017-11-30T19:43:35.167Z,30.73
2017-11-30T19:46:02.193Z,34.00
2017-11-30T19:48:28.394Z,32.00
2017-11-30T19:50:54.625Z,31.67
2017-11-30T19:53:20.892Z,31.43
2017-11-30T19:55:47.140Z,31.13
2017-11-30T19:58:14.170Z,29.57
2017-11-30T20:00:41.196Z,27.83
2017-11-30T20:03:07.413Z,26.10
2017-11-30T20:05:33.669Z,28.60
2017-11-30T20:07:59.916Z,27.40
2017-11-30T20:10:26.895Z,30.77
2017-11-30T20:12:53.326Z,28.60
2017-11-30T20:15:19.568Z,30.73
2017-11-30T20:17:45.825Z,35.27
2017-11-30T20:20:13.361Z,47.23
2017-11-30T20:22:40.288Z,47.27
2017-11-30T20:25:06.524Z,36.87
2017-11-30T20:27:32.812Z,33.73
2017-11-30T20:29:59.824Z,28.77
2017-11-30T20:32:26.083Z,32.03
2017-11-30T20:34:53.086Z,33.27
2017-11-30T20:37:19.358Z,33.27
2017-11-30T20:39:45.558Z,33.33
2017-11-30T20:42:11.884Z,34.17
2017-11-30T20:44:38.155Z,33.00
2017-11-30T20:47:05.242Z,27.47
2017-11-30T20:49:31.568Z,34.10
2017-11-30T20:51:57.806Z,35.47
2017-11-30T20:54:24.052Z,40.40
2017-11-30T20:56:50.295Z,39.20
2017-11-30T20:59:17.266Z,31.73
2017-11-30T21:01:44.223Z,32.47
2017-11-30T21:04:10.512Z,29.07
2017-11-30T21:06:36.796Z,29.93
2017-11-30T21:09:03.198Z,29.93
2017-11-30T21:11:30.215Z,33.50
2017-11-30T21:13:56.502Z,29.10
2017-11-30T21:16:22.737Z,29.13
2017-11-30T21:18:48.948Z,29.03
2017-11-30T21:21:15.171Z,41.80
2017-11-30T21:23:41.397Z,32.17
2017-11-30T21:26:08.402Z,32.70
2017-11-30T21:28:34.635Z,35.80
2017-11-30T21:31:00.865Z,34.50
2017-11-30T21:33:27.903Z,34.73
2017-11-30T21:35:54.112Z,34.53
2017-11-30T21:38:20.428Z,30.43
2017-11-30T21:40:46.651Z,32.17
2017-11-30T21:43:12.830Z,30.27
2017-11-30T21:45:39.123Z,27.27
2017-11-30T21:48:05.316Z,30.90
2017-11-30T21:50:32.327Z,27.37
2017-11-30T21:52:58.605Z,29.83
2017-11-30T21:55:24.850Z,33.63
2017-11-30T21:57:51.083Z,30.20
2017-11-30T22:00:22.201Z,29.07
2017-11-30T22:02:48.448Z,30.17
2017-11-30T22:05:14.750Z,30.27
2017-11-30T22:07:40.970Z,33.40
2017-11-30T22:10:08.007Z,28.53
2017-11-30T22:12:35.011Z,31.10
2017-11-30T22:15:01.316Z,32.97
2017-11-30T22:17:28.534Z,48.23
2017-11-30T22:19:54.847Z,31.30
2017-11-30T22:22:21.085Z,31.57
2017-11-30T22:24:48.131Z,30.83
2017-11-30T22:27:14.415Z,29.20
2017-11-30T22:29:40.677Z,29.80
2017-11-30T22:32:06.936Z,31.37
2017-11-30T22:34:33.955Z,23.93
2017-11-30T22:37:02.997Z,27.93
2017-11-30T22:39:35.848Z,26.90
2017-11-30T22:42:02.425Z,24.60
2017-11-30T22:44:28.668Z,26.17
2017-11-30T22:46:54.964Z,25.30
2017-11-30T22:49:22.007Z,23.77
2017-11-30T22:51:52.993Z,24.20
2017-11-30T22:54:19.593Z,27.23
2017-11-30T22:56:46.567Z,20.90
2017-11-30T22:59:12.845Z,23.20
2017-11-30T23:01:39.008Z,21.97
2017-11-30T23:04:05.315Z,21.47
2017-11-30T23:06:32.262Z,22.37
2017-11-30T23:09:00.457Z,24.53
2017-11-30T23:11:29.153Z,22.57
2017-11-30T23:13:55.431Z,19.53
2017-11-30T23:16:33.120Z,25.63
2017-11-30T23:19:00.300Z,20.60
2017-11-30T23:21:27.346Z,19.70
2017-11-30T23:23:57.415Z,23.67
2017-11-30T23:26:23.743Z,20.67
2017-11-30T23:28:50.017Z,23.57
2017-11-30T23:31:16.311Z,22.97
2017-11-30T23:33:46.105Z,24.20
2017-11-30T23:36:19.481Z,21.63
2017-11-30T23:38:45.761Z,23.63
2017-11-30T23:41:11.996Z,20.63
2017-11-30T23:43:38.473Z,22.63
2017-11-30T23:46:04.706Z,21.07
2017-11-30T23:48:32.951Z,17.83
2017-11-30T23:50:59.926Z,19.30
2017-11-30T23:53:26.204Z,18.83
2017-11-30T23:55:52.394Z,24.40
2017-11-30T23:58:18.582Z,23.37
